Terminal Aerodrome Forecast
Issued by NWS Lake Charles, LA

Home | Current Version | Previous Version | Text Only | Print | Product List | Glossary On
Versions: 1 2 3 4 5 6 7 8 9 10 11 12 13 14 15 16 17
061
FTUS44 KLCH 251031 AAA
TAFARA
TAF AMD
KARA 251031Z 2511/2606 08003KT P6SM SCT025 BKN030
     FM251200 VRB05KT P6SM VCSH SCT025
     FM251800 20005KT P6SM VCTS SCT025CB=

USA.gov is the U.S. government's official web portal to all federal, state and local government web resources and services.